sensor_id;sensor_type;location;lat;lon;timestamp;pressure;altitude;pressure_sealevel;temperature;humidity
2000;BME280;1001;48.87406500;9.59633600;2022-07-30T00:00:49;95134.50;;;17.27;100.00
2000;BME280;1001;48.87406500;9.59633600;2022-07-30T00:03:18;95132.38;;;17.19;100.00
2000;BME280;1001;48.87406500;9.59633600;2022-07-30T00:05:44;95119.47;;;17.07;100.00
2000;BME280;1001;48.87406500;9.59633600;2022-07-30T00:08:11;95124.44;;;17.24;100.00
2000;BME280;1001;48.87406500;9.59633600;2022-07-30T00:10:38;95125.19;;;17.39;100.00
2000;BME280;1001;48.87406500;9.59633600;2022-07-30T00:13:07;95116.19;;;17.45;100.00
2000;BME280;1001;48.87406500;9.59633600;2022-07-30T00:15:34;95124.34;;;17.49;100.00
2000;BME280;1001;48.87406500;9.59633600;2022-07-30T00:18:02;95126.47;;;17.62;100.00
2000;BME280;1001;48.87406500;9.59633600;2022-07-30T00:20:29;95125.34;;;17.68;100.00
2000;BME280;1001;48.87406500;9.59633600;2022-07-30T00:22:56;95130.66;;;17.63;100.00
2000;BME280;1001;48.87406500;9.59633600;2022-07-30T00:25:23;95135.44;;;17.61;100.00
2000;BME280;1001;48.87406500;9.59633600;2022-07-30T00:27:50;95136.78;;;17.53;100.00
2000;BME280;1001;48.87406500;9.59633600;2022-07-30T00:30:16;95141.53;;;17.56;100.00
2000;BME280;1001;48.87406500;9.59633600;2022-07-30T00:32:43;95131.50;;;17.53;99.74
2000;BME280;1001;48.87406500;9.59633600;2022-07-30T00:35:11;95147.91;;;17.55;99.66
2000;BME280;1001;48.87406500;9.59633600;2022-07-30T00:37:38;95140.50;;;17.47;100.00
2000;BME280;1001;48.87406500;9.59633600;2022-07-30T00:40:07;95141.00;;;17.49;100.00
2000;BME280;1001;48.87406500;9.59633600;2022-07-30T00:42:39;95145.78;;;17.47;100.00
2000;BME280;1001;48.87406500;9.59633600;2022-07-30T00:45:10;95142.84;;;17.49;100.00
2000;BME280;1001;48.87406500;9.59633600;2022-07-30T00:47:38;95144.19;;;17.46;100.00
2000;BME280;1001;48.87406500;9.59633600;2022-07-30T00:50:08;95148.16;;;17.44;100.00
2000;BME280;1001;48.87406500;9.59633600;2022-07-30T00:52:37;95137.34;;;17.35;100.00
2000;BME280;1001;48.87406500;9.59633600;2022-07-30T00:55:05;95132.66;;;17.22;100.00
2000;BME280;1001;48.87406500;9.59633600;2022-07-30T00:57:32;95140.84;;;17.21;100.00
2000;BME280;1001;48.87406500;9.59633600;2022-07-30T00:59:58;95140.84;;;17.16;100.00
2000;BME280;1001;48.87406500;9.59633600;2022-07-30T01:02:25;95151.97;;;17.13;100.00
2000;BME280;1001;48.87406500;9.59633600;2022-07-30T01:04:52;95154.88;;;17.11;100.00
2000;BME280;1001;48.87406500;9.59633600;2022-07-30T01:07:20;95158.31;;;17.07;100.00
2000;BME280;1001;48.87406500;9.59633600;2022-07-30T01:09:48;95163.06;;;17.10;100.00
2000;BME280;1001;48.87406500;9.59633600;2022-07-30T01:12:19;95156.22;;;17.04;100.00
2000;BME280;1001;48.87406500;9.59633600;2022-07-30T01:14:46;95163.34;;;17.08;100.00
2000;BME280;1001;48.87406500;9.59633600;2022-07-30T01:17:13;95154.63;;;17.08;100.00
2000;BME280;1001;48.87406500;9.59633600;2022-07-30T01:19:40;95154.63;;;17.08;100.00
2000;BME280;1001;48.87406500;9.59633600;2022-07-30T01:22:18;95154.63;;;17.02;100.00
2000;BME280;1001;48.87406500;9.59633600;2022-07-30T01:24:54;95153.31;;;17.00;100.00
2000;BME280;1001;48.87406500;9.59633600;2022-07-30T01:27:28;95147.75;;;17.01;100.00
2000;BME280;1001;48.87406500;9.59633600;2022-07-30T01:29:56;95149.84;;;17.15;100.00
2000;BME280;1001;48.87406500;9.59633600;2022-07-30T01:32:25;95155.63;;;17.27;100.00
2000;BME280;1001;48.87406500;9.59633600;2022-07-30T01:34:54;95155.06;;;17.40;100.00
2000;BME280;1001;48.87406500;9.59633600;2022-07-30T01:37:23;95153.44;;;17.49;100.00
2000;BME280;1001;48.87406500;9.59633600;2022-07-30T01:39:51;95151.06;;;17.57;98.25
2000;BME280;1001;48.87406500;9.59633600;2022-07-30T01:42:20;95147.63;;;17.57;97.27
2000;BME280;1001;48.87406500;9.59633600;2022-07-30T01:44:50;95150.78;;;17.64;95.72
2000;BME280;1001;48.87406500;9.59633600;2022-07-30T01:47:18;95157.38;;;17.61;95.87
2000;BME280;1001;48.87406500;9.59633600;2022-07-30T01:49:47;95158.44;;;17.60;95.11
2000;BME280;1001;48.87406500;9.59633600;2022-07-30T01:52:15;95160.84;;;17.62;94.71
2000;BME280;1001;48.87406500;9.59633600;2022-07-30T01:54:44;95158.22;;;17.52;95.59
2000;BME280;1001;48.87406500;9.59633600;2022-07-30T01:57:13;95165.91;;;17.33;97.54
2000;BME280;1001;48.87406500;9.59633600;2022-07-30T01:59:42;95167.78;;;17.23;98.48
2000;BME280;1001;48.87406500;9.59633600;2022-07-30T02:02:12;95164.91;;;17.14;99.65
2000;BME280;1001;48.87406500;9.59633600;2022-07-30T02:04:39;95171.00;;;16.99;100.00
2000;BME280;1001;48.87406500;9.59633600;2022-07-30T02:07:11;95178.94;;;16.94;100.00
2000;BME280;1001;48.87406500;9.59633600;2022-07-30T02:09:44;95167.84;;;16.82;100.00
2000;BME280;1001;48.87406500;9.59633600;2022-07-30T02:12:15;95180.81;;;16.79;100.00
2000;BME280;1001;48.87406500;9.59633600;2022-07-30T02:15:04;95170.25;;;16.69;100.00
2000;BME280;1001;48.87406500;9.59633600;2022-07-30T02:17:38;95166.81;;;16.63;100.00
2000;BME280;1001;48.87406500;9.59633600;2022-07-30T02:20:08;95168.38;;;16.59;100.00
2000;BME280;1001;48.87406500;9.59633600;2022-07-30T02:22:39;95169.19;;;16.55;100.00
2000;BME280;1001;48.87406500;9.59633600;2022-07-30T02:25:08;95167.31;;;16.50;100.00
2000;BME280;1001;48.87406500;9.59633600;2022-07-30T02:27:37;95164.66;;;16.50;100.00
2000;BME280;1001;48.87406500;9.59633600;2022-07-30T02:30:07;95159.66;;;16.44;100.00
2000;BME280;1001;48.87406500;9.59633600;2022-07-30T02:32:37;95160.19;;;16.46;100.00
2000;BME280;1001;48.87406500;9.59633600;2022-07-30T02:35:11;95158.59;;;16.34;100.00
2000;BME280;1001;48.87406500;9.59633600;2022-07-30T02:37:40;95156.47;;;16.31;100.00
2000;BME280;1001;48.87406500;9.59633600;2022-07-30T02:40:09;95161.19;;;16.19;100.00
2000;BME280;1001;48.87406500;9.59633600;2022-07-30T02:42:40;95165.16;;;16.12;100.00
2000;BME280;1001;48.87406500;9.59633600;2022-07-30T02:45:09;95165.66;;;15.99;100.00
2000;BME280;1001;48.87406500;9.59633600;2022-07-30T02:47:39;95175.38;;;15.93;100.00
2000;BME280;1001;48.87406500;9.59633600;2022-07-30T02:50:08;95161.13;;;15.79;100.00
2000;BME280;1001;48.87406500;9.59633600;2022-07-30T02:52:36;95175.59;;;15.77;100.00
2000;BME280;1001;48.87406500;9.59633600;2022-07-30T02:55:05;95177.19;;;15.73;100.00
2000;BME280;1001;48.87406500;9.59633600;2022-07-30T02:57:33;95178.50;;;15.70;100.00
2000;BME280;1001;48.87406500;9.59633600;2022-07-30T03:00:03;95175.56;;;15.61;100.00
2000;BME280;1001;48.87406500;9.59633600;2022-07-30T03:02:31;95177.69;;;15.70;100.00
2000;BME280;1001;48.87406500;9.59633600;2022-07-30T03:05:01;95168.16;;;15.58;100.00
2000;BME280;1001;48.87406500;9.59633600;2022-07-30T03:07:30;95177.16;;;15.68;100.00
2000;BME280;1001;48.87406500;9.59633600;2022-07-30T03:09:58;95180.31;;;15.64;100.00
2000;BME280;1001;48.87406500;9.59633600;2022-07-30T03:12:28;95185.06;;;15.68;100.00
2000;BME280;1001;48.87406500;9.59633600;2022-07-30T03:14:55;95187.19;;;15.71;100.00
2000;BME280;1001;48.87406500;9.59633600;2022-07-30T03:17:27;95195.31;;;15.64;100.00
2000;BME280;1001;48.87406500;9.59633600;2022-07-30T03:20:00;95191.91;;;15.63;100.00
2000;BME280;1001;48.87406500;9.59633600;2022-07-30T03:22:28;95187.41;;;15.59;100.00
2000;BME280;1001;48.87406500;9.59633600;2022-07-30T03:24:58;95195.28;;;15.49;100.00
2000;BME280;1001;48.87406500;9.59633600;2022-07-30T03:27:25;95205.31;;;15.52;100.00
2000;BME280;1001;48.87406500;9.59633600;2022-07-30T03:29:53;95205.84;;;15.54;100.00
2000;BME280;1001;48.87406500;9.59633600;2022-07-30T03:32:21;95201.09;;;15.56;100.00
2000;BME280;1001;48.87406500;9.59633600;2022-07-30T03:34:49;95202.41;;;15.53;100.00
2000;BME280;1001;48.87406500;9.59633600;2022-07-30T03:37:18;95205.34;;;15.62;100.00
2000;BME280;1001;48.87406500;9.59633600;2022-07-30T03:39:45;95207.72;;;15.63;100.00
2000;BME280;1001;48.87406500;9.59633600;2022-07-30T03:42:14;95215.09;;;15.66;100.00
2000;BME280;1001;48.87406500;9.59633600;2022-07-30T03:44:42;95208.81;;;15.73;100.00
2000;BME280;1001;48.87406500;9.59633600;2022-07-30T03:47:11;95220.66;;;15.65;100.00
2000;BME280;1001;48.87406500;9.59633600;2022-07-30T03:49:41;95213.50;;;15.60;100.00
2000;BME280;1001;48.87406500;9.59633600;2022-07-30T03:52:08;95213.75;;;15.54;100.00
2000;BME280;1001;48.87406500;9.59633600;2022-07-30T03:54:37;95220.38;;;15.61;100.00
2000;BME280;1001;48.87406500;9.59633600;2022-07-30T03:57:04;95205.03;;;15.53;100.00
2000;BME280;1001;48.87406500;9.59633600;2022-07-30T03:59:32;95217.44;;;15.58;100.00
2000;BME280;1001;48.87406500;9.59633600;2022-07-30T04:01:59;95227.78;;;15.70;100.00
2000;BME280;1001;48.87406500;9.59633600;2022-07-30T04:04:27;95230.47;;;15.80;100.00
2000;BME280;1001;48.87406500;9.59633600;2022-07-30T04:06:54;95232.84;;;15.81;100.00
2000;BME280;1001;48.87406500;9.59633600;2022-07-30T04:09:21;95235.00;;;15.89;100.00
2000;BME280;1001;48.87406500;9.59633600;2022-07-30T04:11:50;95235.00;;;15.94;100.00
2000;BME280;1001;48.87406500;9.59633600;2022-07-30T04:14:16;95234.75;;;15.96;100.00
2000;BME280;1001;48.87406500;9.59633600;2022-07-30T04:16:46;95239.75;;;15.97;100.00
2000;BME280;1001;48.87406500;9.59633600;2022-07-30T04:19:18;95251.38;;;15.96;100.00
2000;BME280;1001;48.87406500;9.59633600;2022-07-30T04:21:48;95251.13;;;16.03;99.74
2000;BME280;1001;48.87406500;9.59633600;2022-07-30T04:24:17;95250.31;;;16.02;97.70
2000;BME280;1001;48.87406500;9.59633600;2022-07-30T04:26:45;95255.69;;;16.22;95.91
2000;BME280;1001;48.87406500;9.59633600;2022-07-30T04:29:14;95260.19;;;16.27;95.24
2000;BME280;1001;48.87406500;9.59633600;2022-07-30T04:31:41;95266.53;;;16.36;93.16
2000;BME280;1001;48.87406500;9.59633600;2022-07-30T04:34:12;95262.59;;;16.44;92.18
2000;BME280;1001;48.87406500;9.59633600;2022-07-30T04:36:40;95254.66;;;16.39;91.98
2000;BME280;1001;48.87406500;9.59633600;2022-07-30T04:39:07;95267.09;;;16.48;91.66
2000;BME280;1001;48.87406500;9.59633600;2022-07-30T04:41:35;95278.97;;;16.51;91.31
2000;BME280;1001;48.87406500;9.59633600;2022-07-30T04:44:02;95277.69;;;16.53;90.95
2000;BME280;1001;48.87406500;9.59633600;2022-07-30T04:46:31;95272.66;;;16.52;90.83
2000;BME280;1001;48.87406500;9.59633600;2022-07-30T04:48:58;95270.00;;;16.52;90.79
2000;BME280;1001;48.87406500;9.59633600;2022-07-30T04:51:28;95277.16;;;16.51;91.53
2000;BME280;1001;48.87406500;9.59633600;2022-07-30T04:53:58;95282.91;;;16.43;92.85
2000;BME280;1001;48.87406500;9.59633600;2022-07-30T04:56:27;95283.94;;;16.42;92.93
2000;BME280;1001;48.87406500;9.59633600;2022-07-30T04:58:55;95288.22;;;16.48;93.06
2000;BME280;1001;48.87406500;9.59633600;2022-07-30T05:01:24;95289.78;;;16.39;93.63
2000;BME280;1001;48.87406500;9.59633600;2022-07-30T05:03:52;95281.88;;;16.44;93.26
2000;BME280;1001;48.87406500;9.59633600;2022-07-30T05:06:19;95290.56;;;16.45;93.56
2000;BME280;1001;48.87406500;9.59633600;2022-07-30T05:08:46;95292.16;;;16.46;93.74
2000;BME280;1001;48.87406500;9.59633600;2022-07-30T05:11:13;95294.53;;;16.47;93.69
2000;BME280;1001;48.87406500;9.59633600;2022-07-30T05:13:40;95296.97;;;16.54;93.06
2000;BME280;1001;48.87406500;9.59633600;2022-07-30T05:16:07;95290.91;;;16.58;92.39
2000;BME280;1001;48.87406500;9.59633600;2022-07-30T05:18:35;95294.31;;;16.59;92.58
2000;BME280;1001;48.87406500;9.59633600;2022-07-30T05:21:07;95296.19;;;16.68;91.13
2000;BME280;1001;48.87406500;9.59633600;2022-07-30T05:23:34;95293.03;;;16.71;91.55
2000;BME280;1001;48.87406500;9.59633600;2022-07-30T05:26:01;95298.34;;;16.81;90.50
2000;BME280;1001;48.87406500;9.59633600;2022-07-30T05:28:28;95297.81;;;16.84;90.34
2000;BME280;1001;48.87406500;9.59633600;2022-07-30T05:30:55;95292.81;;;16.93;89.94
2000;BME280;1001;48.87406500;9.59633600;2022-07-30T05:33:22;95304.41;;;16.92;89.72
2000;BME280;1001;48.87406500;9.59633600;2022-07-30T05:35:49;95304.69;;;17.06;88.74
2000;BME280;1001;48.87406500;9.59633600;2022-07-30T05:38:17;95301.53;;;17.14;88.62
2000;BME280;1001;48.87406500;9.59633600;2022-07-30T05:40:44;95301.53;;;17.14;88.93
2000;BME280;1001;48.87406500;9.59633600;2022-07-30T05:43:11;95308.41;;;17.25;89.10
2000;BME280;1001;48.87406500;9.59633600;2022-07-30T05:45:38;95301.25;;;17.20;89.20
2000;BME280;1001;48.87406500;9.59633600;2022-07-30T05:48:05;95294.41;;;17.24;88.02
2000;BME280;1001;48.87406500;9.59633600;2022-07-30T05:50:32;95310.78;;;17.36;88.05
2000;BME280;1001;48.87406500;9.59633600;2022-07-30T05:52:59;95313.94;;;17.28;87.85
2000;BME280;1001;48.87406500;9.59633600;2022-07-30T05:55:27;95306.53;;;17.35;88.00
2000;BME280;1001;48.87406500;9.59633600;2022-07-30T05:57:56;95308.91;;;17.42;88.29
2000;BME280;1001;48.87406500;9.59633600;2022-07-30T06:00:23;95310.78;;;17.51;86.55
2000;BME280;1001;48.87406500;9.59633600;2022-07-30T06:02:49;95317.91;;;17.61;86.31
2000;BME280;1001;48.87406500;9.59633600;2022-07-30T06:05:16;95318.69;;;17.72;85.02
2000;BME280;1001;48.87406500;9.59633600;2022-07-30T06:07:44;95321.34;;;17.77;85.17
2000;BME280;1001;48.87406500;9.59633600;2022-07-30T06:10:10;95323.41;;;17.90;85.79
2000;BME280;1001;48.87406500;9.59633600;2022-07-30T06:12:38;95325.72;;;18.11;83.94
2000;BME280;1001;48.87406500;9.59633600;2022-07-30T06:15:07;95314.75;;;18.43;84.16
2000;BME280;1001;48.87406500;9.59633600;2022-07-30T06:17:39;95327.41;;;19.05;80.88
2000;BME280;1001;48.87406500;9.59633600;2022-07-30T06:20:07;95337.75;;;19.74;76.11
2000;BME280;1001;48.87406500;9.59633600;2022-07-30T06:22:34;95326.03;;;19.80;76.85
2000;BME280;1001;48.87406500;9.59633600;2022-07-30T06:25:01;95332.25;;;20.18;75.45
2000;BME280;1001;48.87406500;9.59633600;2022-07-30T06:27:27;95332.94;;;20.52;74.67
2000;BME280;1001;48.87406500;9.59633600;2022-07-30T06:29:56;95337.78;;;20.87;72.22
2000;BME280;1001;48.87406500;9.59633600;2022-07-30T06:32:24;95334.63;;;21.23;72.00
2000;BME280;1001;48.87406500;9.59633600;2022-07-30T06:34:51;95351.38;;;21.23;70.98
2000;BME280;1001;48.87406500;9.59633600;2022-07-30T06:37:17;95351.03;;;21.62;69.97
2000;BME280;1001;48.87406500;9.59633600;2022-07-30T06:39:44;95341.53;;;21.56;66.83
2000;BME280;1001;48.87406500;9.59633600;2022-07-30T06:42:11;95356.22;;;21.72;68.95
2000;BME280;1001;48.87406500;9.59633600;2022-07-30T06:44:38;95351.88;;;21.76;67.38
2000;BME280;1001;48.87406500;9.59633600;2022-07-30T06:47:06;95359.44;;;22.15;65.58
2000;BME280;1001;48.87406500;9.59633600;2022-07-30T06:49:33;95352.25;;;22.02;67.27
2000;BME280;1001;48.87406500;9.59633600;2022-07-30T06:52:01;95368.63;;;22.09;67.04
2000;BME280;1001;48.87406500;9.59633600;2022-07-30T06:54:28;95368.50;;;21.68;67.28
2000;BME280;1001;48.87406500;9.59633600;2022-07-30T06:56:54;95353.66;;;21.81;64.74
2000;BME280;1001;48.87406500;9.59633600;2022-07-30T06:59:21;95366.53;;;21.60;66.77
2000;BME280;1001;48.87406500;9.59633600;2022-07-30T07:01:48;95376.16;;;21.56;64.74
2000;BME280;1001;48.87406500;9.59633600;2022-07-30T07:04:19;95370.06;;;21.37;66.63
2000;BME280;1001;48.87406500;9.59633600;2022-07-30T07:06:47;95366.28;;;21.24;65.07
2000;BME280;1001;48.87406500;9.59633600;2022-07-30T07:09:13;95377.84;;;21.33;66.23
2000;BME280;1001;48.87406500;9.59633600;2022-07-30T07:11:40;95373.97;;;21.26;66.02
2000;BME280;1001;48.87406500;9.59633600;2022-07-30T07:14:10;95377.78;;;21.38;65.51
2000;BME280;1001;48.87406500;9.59633600;2022-07-30T07:16:37;95377.59;;;21.67;64.53
2000;BME280;1001;48.87406500;9.59633600;2022-07-30T07:19:04;95383.09;;;21.89;63.15
2000;BME280;1001;48.87406500;9.59633600;2022-07-30T07:21:32;95375.03;;;21.06;65.99
2000;BME280;1001;48.87406500;9.59633600;2022-07-30T07:23:59;95371.50;;;21.80;64.54
2000;BME280;1001;48.87406500;9.59633600;2022-07-30T07:26:27;95388.50;;;21.65;64.11
2000;BME280;1001;48.87406500;9.59633600;2022-07-30T07:28:54;95385.78;;;22.03;62.48
2000;BME280;1001;48.87406500;9.59633600;2022-07-30T07:31:20;95394.69;;;22.12;63.52
2000;BME280;1001;48.87406500;9.59633600;2022-07-30T07:33:47;95384.53;;;22.14;63.30
2000;BME280;1001;48.87406500;9.59633600;2022-07-30T07:36:14;95393.63;;;22.26;63.52
2000;BME280;1001;48.87406500;9.59633600;2022-07-30T07:38:42;95386.88;;;22.15;64.48
2000;BME280;1001;48.87406500;9.59633600;2022-07-30T07:41:09;95395.66;;;22.62;62.80
2000;BME280;1001;48.87406500;9.59633600;2022-07-30T07:43:35;95392.16;;;22.88;61.64
2000;BME280;1001;48.87406500;9.59633600;2022-07-30T07:46:02;95396.63;;;22.66;58.94
2000;BME280;1001;48.87406500;9.59633600;2022-07-30T07:48:29;95400.47;;;22.00;61.25
2000;BME280;1001;48.87406500;9.59633600;2022-07-30T07:50:56;95395.28;;;22.36;62.54
2000;BME280;1001;48.87406500;9.59633600;2022-07-30T07:53:23;95390.56;;;22.47;59.84
2000;BME280;1001;48.87406500;9.59633600;2022-07-30T07:55:51;95390.06;;;22.45;61.99
2000;BME280;1001;48.87406500;9.59633600;2022-07-30T07:58:18;95399.44;;;22.56;59.73
2000;BME280;1001;48.87406500;9.59633600;2022-07-30T08:00:45;95401.94;;;22.52;60.26
2000;BME280;1001;48.87406500;9.59633600;2022-07-30T08:03:11;95401.16;;;22.79;60.66
2000;BME280;1001;48.87406500;9.59633600;2022-07-30T08:05:38;95409.94;;;22.52;60.46
2000;BME280;1001;48.87406500;9.59633600;2022-07-30T08:08:05;95401.22;;;22.47;61.65
2000;BME280;1001;48.87406500;9.59633600;2022-07-30T08:10:32;95398.09;;;22.72;59.30
2000;BME280;1001;48.87406500;9.59633600;2022-07-30T08:13:02;95409.84;;;22.71;59.62
2000;BME280;1001;48.87406500;9.59633600;2022-07-30T08:15:29;95397.88;;;22.82;59.91
2000;BME280;1001;48.87406500;9.59633600;2022-07-30T08:17:56;95394.13;;;22.96;58.78
2000;BME280;1001;48.87406500;9.59633600;2022-07-30T08:20:23;95399.22;;;23.20;56.37
2000;BME280;1001;48.87406500;9.59633600;2022-07-30T08:22:50;95397.13;;;23.17;58.49
2000;BME280;1001;48.87406500;9.59633600;2022-07-30T08:25:17;95403.19;;;22.95;57.77
2000;BME280;1001;48.87406500;9.59633600;2022-07-30T08:27:44;95400.41;;;23.14;58.92
2000;BME280;1001;48.87406500;9.59633600;2022-07-30T08:30:13;95407.16;;;22.84;58.26
2000;BME280;1001;48.87406500;9.59633600;2022-07-30T08:32:39;95400.44;;;23.00;57.86
2000;BME280;1001;48.87406500;9.59633600;2022-07-30T08:35:07;95400.13;;;23.16;56.18
2000;BME280;1001;48.87406500;9.59633600;2022-07-30T08:37:34;95401.94;;;23.29;56.02
2000;BME280;1001;48.87406500;9.59633600;2022-07-30T08:40:01;95405.03;;;23.36;54.21
2000;BME280;1001;48.87406500;9.59633600;2022-07-30T08:42:28;95406.78;;;23.40;55.50
2000;BME280;1001;48.87406500;9.59633600;2022-07-30T08:44:56;95406.94;;;23.80;54.93
2000;BME280;1001;48.87406500;9.59633600;2022-07-30T08:47:30;95404.78;;;23.90;55.36
2000;BME280;1001;48.87406500;9.59633600;2022-07-30T08:49:57;95403.53;;;24.10;53.71
2000;BME280;1001;48.87406500;9.59633600;2022-07-30T08:52:29;95415.56;;;23.99;52.25
2000;BME280;1001;48.87406500;9.59633600;2022-07-30T08:54:57;95409.25;;;22.87;51.28
2000;BME280;1001;48.87406500;9.59633600;2022-07-30T08:57:25;95407.25;;;22.93;51.58
2000;BME280;1001;48.87406500;9.59633600;2022-07-30T08:59:54;95403.28;;;23.18;49.83
2000;BME280;1001;48.87406500;9.59633600;2022-07-30T09:02:22;95407.47;;;23.46;48.68
2000;BME280;1001;48.87406500;9.59633600;2022-07-30T09:04:50;95410.69;;;23.21;48.86
2000;BME280;1001;48.87406500;9.59633600;2022-07-30T09:07:17;95421.38;;;23.56;50.70
2000;BME280;1001;48.87406500;9.59633600;2022-07-30T09:09:44;95425.75;;;23.75;52.24
2000;BME280;1001;48.87406500;9.59633600;2022-07-30T09:12:35;95431.88;;;24.42;50.93
2000;BME280;1001;48.87406500;9.59633600;2022-07-30T09:15:04;95419.78;;;24.44;48.22
2000;BME280;1001;48.87406500;9.59633600;2022-07-30T09:17:49;95420.56;;;24.84;46.92
2000;BME280;1001;48.87406500;9.59633600;2022-07-30T09:20:18;95425.53;;;24.38;47.36
2000;BME280;1001;48.87406500;9.59633600;2022-07-30T09:22:46;95422.91;;;23.22;48.31
2000;BME280;1001;48.87406500;9.59633600;2022-07-30T09:25:13;95412.22;;;23.49;50.63
2000;BME280;1001;48.87406500;9.59633600;2022-07-30T09:27:44;95426.47;;;23.89;49.79
2000;BME280;1001;48.87406500;9.59633600;2022-07-30T09:30:12;95416.16;;;23.74;48.58
2000;BME280;1001;48.87406500;9.59633600;2022-07-30T09:32:51;95407.13;;;23.61;48.38
2000;BME280;1001;48.87406500;9.59633600;2022-07-30T09:35:20;95412.03;;;23.67;47.99
2000;BME280;1001;48.87406500;9.59633600;2022-07-30T09:37:57;95395.53;;;23.30;49.14
2000;BME280;1001;48.87406500;9.59633600;2022-07-30T09:40:24;95414.38;;;23.33;49.95
2000;BME280;1001;48.87406500;9.59633600;2022-07-30T09:43:00;95410.34;;;23.36;50.97
2000;BME280;1001;48.87406500;9.59633600;2022-07-30T09:45:27;95410.03;;;23.95;49.48
2000;BME280;1001;48.87406500;9.59633600;2022-07-30T09:47:54;95404.59;;;24.70;48.40
2000;BME280;1001;48.87406500;9.59633600;2022-07-30T09:50:23;95409.59;;;25.11;45.77
2000;BME280;1001;48.87406500;9.59633600;2022-07-30T09:52:52;95414.09;;;24.76;47.78
2000;BME280;1001;48.87406500;9.59633600;2022-07-30T09:55:29;95432.78;;;24.37;47.03
2000;BME280;1001;48.87406500;9.59633600;2022-07-30T09:57:58;95418.47;;;23.89;49.39
2000;BME280;1001;48.87406500;9.59633600;2022-07-30T10:00:27;95413.69;;;23.99;47.96
2000;BME280;1001;48.87406500;9.59633600;2022-07-30T10:02:54;95411.06;;;24.30;47.92
2000;BME280;1001;48.87406500;9.59633600;2022-07-30T10:05:23;95414.09;;;24.15;47.87
2000;BME280;1001;48.87406500;9.59633600;2022-07-30T10:07:53;95410.53;;;24.59;47.47
2000;BME280;1001;48.87406500;9.59633600;2022-07-30T10:10:22;95400.72;;;24.85;45.86
2000;BME280;1001;48.87406500;9.59633600;2022-07-30T10:12:51;95413.91;;;25.29;46.26
2000;BME280;1001;48.87406500;9.59633600;2022-07-30T10:15:19;95418.59;;;25.24;44.90
2000;BME280;1001;48.87406500;9.59633600;2022-07-30T10:17:47;95397.84;;;25.46;46.55
2000;BME280;1001;48.87406500;9.59633600;2022-07-30T10:20:15;95411.88;;;25.69;45.59
2000;BME280;1001;48.87406500;9.59633600;2022-07-30T10:22:44;95408.69;;;25.24;43.86
2000;BME280;1001;48.87406500;9.59633600;2022-07-30T10:25:11;95413.97;;;24.90;45.25
2000;BME280;1001;48.87406500;9.59633600;2022-07-30T10:27:38;95415.31;;;25.35;45.15
2000;BME280;1001;48.87406500;9.59633600;2022-07-30T10:30:06;95416.47;;;25.60;43.11
2000;BME280;1001;48.87406500;9.59633600;2022-07-30T10:32:33;95417.66;;;25.20;43.53
2000;BME280;1001;48.87406500;9.59633600;2022-07-30T10:35:00;95399.97;;;25.01;44.69
2000;BME280;1001;48.87406500;9.59633600;2022-07-30T10:37:27;95405.91;;;24.11;45.80
2000;BME280;1001;48.87406500;9.59633600;2022-07-30T10:40:04;95404.84;;;24.21;45.82
2000;BME280;1001;48.87406500;9.59633600;2022-07-30T10:42:48;95404.69;;;23.95;46.16
2000;BME280;1001;48.87406500;9.59633600;2022-07-30T10:45:19;95401.22;;;23.95;47.48
2000;BME280;1001;48.87406500;9.59633600;2022-07-30T10:47:51;95399.00;;;23.66;47.25
2000;BME280;1001;48.87406500;9.59633600;2022-07-30T10:50:21;95409.00;;;23.60;47.72
2000;BME280;1001;48.87406500;9.59633600;2022-07-30T10:52:52;95406.75;;;23.98;47.36
2000;BME280;1001;48.87406500;9.59633600;2022-07-30T10:55:21;95409.78;;;24.75;47.96
2000;BME280;1001;48.87406500;9.59633600;2022-07-30T10:58:04;95408.22;;;25.31;45.89
2000;BME280;1001;48.87406500;9.59633600;2022-07-30T11:00:32;95400.47;;;25.12;45.01
2000;BME280;1001;48.87406500;9.59633600;2022-07-30T11:03:13;95407.00;;;25.45;47.37
2000;BME280;1001;48.87406500;9.59633600;2022-07-30T11:05:42;95406.53;;;25.86;44.95
2000;BME280;1001;48.87406500;9.59633600;2022-07-30T11:08:36;95411.72;;;25.83;44.55
2000;BME280;1001;48.87406500;9.59633600;2022-07-30T11:11:41;95398.50;;;26.41;43.44
2000;BME280;1001;48.87406500;9.59633600;2022-07-30T11:14:08;95402.16;;;26.45;40.87
2000;BME280;1001;48.87406500;9.59633600;2022-07-30T11:16:57;95412.00;;;25.13;42.93
2000;BME280;1001;48.87406500;9.59633600;2022-07-30T11:19:25;95403.63;;;25.06;43.58
2000;BME280;1001;48.87406500;9.59633600;2022-07-30T11:22:24;95398.28;;;25.06;44.38
2000;BME280;1001;48.87406500;9.59633600;2022-07-30T11:24:51;95399.63;;;24.77;45.15
2000;BME280;1001;48.87406500;9.59633600;2022-07-30T11:27:36;95411.16;;;24.56;45.14
2000;BME280;1001;48.87406500;9.59633600;2022-07-30T11:30:04;95408.50;;;24.25;45.02
2000;BME280;1001;48.87406500;9.59633600;2022-07-30T11:32:35;95403.41;;;24.85;44.25
2000;BME280;1001;48.87406500;9.59633600;2022-07-30T11:35:14;95402.69;;;25.27;43.38
2000;BME280;1001;48.87406500;9.59633600;2022-07-30T11:38:00;95391.66;;;25.89;46.36
2000;BME280;1001;48.87406500;9.59633600;2022-07-30T11:40:27;95396.13;;;25.59;44.17
2000;BME280;1001;48.87406500;9.59633600;2022-07-30T11:43:19;95397.66;;;25.94;42.67
2000;BME280;1001;48.87406500;9.59633600;2022-07-30T11:45:48;95388.25;;;25.54;44.51
2000;BME280;1001;48.87406500;9.59633600;2022-07-30T11:48:18;95401.94;;;25.95;43.27
2000;BME280;1001;48.87406500;9.59633600;2022-07-30T11:50:46;95396.50;;;26.29;43.11